Portada
METAR-TAF:

METAR-TAF

Aeroports :

Aeroport Internacional de Monastir

Monastir, Tunísia

latitud: 35-46N, longitud: 010-45E, altitud: 2 m

Observació

L'informe es va fer fa 43 minuts, a les 03:30 UTC
Vent 7 kt del Sud
Temperatura 8°C
Humitat 87%
Pressió 1027 hPa
Visibilitat: 8000 m

METAR: DTMB 200330Z 19007KT 8000 NSC 08/06 Q1027

Hora: 05:13 (04:13 UTC)

Pronòstic

L'informe es va fer fa 5 hores i 13 minuts, a les 23:00 UTC
Pronòstic vàlid del 20 a les 00 UTC al 20 a les 24 UTC
Vent 6 kt del Sud/Sud-Est
Visibilitat: 8000 m
Probabilitat 30% :
Temporalment
l' 19 a les 05 UTC al 19 a les 07 UTC
Visibilitat: 4000 m
Escasses núvols a una alçada de 1000 ft
boirina
Probabilitat 40% :
Temporalment
l' 20 a les 09 UTC al 20 a les 12 UTC
Vent 17 kt del Sud/Sud-Oest amb ràfegues de 27 kt

TAF: DTMB 192300Z 2000/2024 16006KT 8000 NSC PROB30 TEMPO 1905/1907 4000 BR FEW010 PROB40 TEMPO 2009/2012 21017G27KT

Observacions i pronòstics meteorològics de més de 4000 aeroports (METAR i TAF).

Les estacions disponibles són els punts grocs i vermells al mapa.

Posi el ratolí al punt desitjat per veure el nom de l'estació.

Feu clic per veure les observacions i els pronòstics meteorològics.

Per canviar el mapa: feu clic els botons verds amb una creu de color negre per apropar; al botó verd amb un guió per allunyar la imatge; o en les fletxes verdes per a mapes adjacents.


METAR-TAF: